Terminal Aerodrome Forecast
Issued by NWS Pocatello, ID

Home | Current Version | Previous Version | Text Only | Print | Product List | Glossary On
Versions: 1 2 3 4 5 6 7 8 9 10 11 12 13
851
FTUS45 KPIH 240520
TAFPIH
TAF
KPIH 240520Z 2406/2506 19007KT P6SM SCT200
     FM241700 24008KT P6SM FEW100 BKN200
     FM242100 26011KT P6SM VCTS FEW080 SCT100CB BKN130
     FM250300 20006KT P6SM VCSH BKN110=

USA.gov is the U.S. government's official web portal to all federal, state and local government web resources and services.